Terminal Aerodrome Forecast
Issued by NWS

Home | Current Version | Previous Version | Text Only | Print | Product List | Glossary Off
Versions: 1 2 3 4 5 6 7 8 9 10 11 12 13 14 15 16 17

020
FTUS43 KMPX 122048 AAA
TAFRWF
TAF AMD
KRWF 122048Z 1221/1318 32016G26KT P6SM SCT020
      TEMPO 1221/1224 BKN020
     FM130000 32009KT P6SM SKC
     FM130500 32004KT P6SM SKC
     FM131200 VRB03KT P6SM BKN150=

USA.gov is the U.S. government's official web portal to all federal, state and local government web resources and services.